createdAt,value
2019-04-18T00:01:03.568Z,4.72
2019-04-18T00:03:51.225Z,5.20
2019-04-18T00:06:15.997Z,4.60
2019-04-18T00:08:45.144Z,4.42
2019-04-18T00:11:17.685Z,4.47
2019-04-18T00:13:45.620Z,4.50
2019-04-18T00:16:14.813Z,4.87
2019-04-18T00:18:44.006Z,5.35
2019-04-18T00:21:13.175Z,5.30
2019-04-18T00:23:42.366Z,6.10
2019-04-18T00:26:12.692Z,5.60
2019-04-18T00:28:41.996Z,5.30
2019-04-18T00:31:11.160Z,5.08
2019-04-18T00:33:40.392Z,5.22
2019-04-18T00:36:11.505Z,5.17
2019-04-18T00:38:40.645Z,5.22
2019-04-18T00:41:12.816Z,6.40
2019-04-18T00:43:40.962Z,6.50
2019-04-18T00:46:15.910Z,5.42
2019-04-18T00:48:41.306Z,5.85
2019-04-18T00:51:11.900Z,6.08
2019-04-18T00:53:41.104Z,4.97
2019-04-18T00:56:10.275Z,6.05
2019-04-18T00:58:39.470Z,6.05
2019-04-18T01:01:12.971Z,6.15
2019-04-18T01:03:40.586Z,6.85
2019-04-18T01:06:12.864Z,6.70
2019-04-18T01:08:40.882Z,6.62
2019-04-18T01:11:10.378Z,5.60
2019-04-18T01:13:40.087Z,6.15
2019-04-18T01:16:10.781Z,6.35
2019-04-18T01:18:39.974Z,6.42
2019-04-18T01:21:09.537Z,6.47
2019-04-18T01:23:38.708Z,5.95
2019-04-18T01:26:12.187Z,6.20
2019-04-18T01:28:38.774Z,4.80
2019-04-18T01:31:07.938Z,4.65
2019-04-18T01:33:37.367Z,4.53
2019-04-18T01:36:06.696Z,7.28
2019-04-18T01:38:39.021Z,5.95
2019-04-18T01:41:07.182Z,5.50
2019-04-18T01:43:41.071Z,5.90
2019-04-18T01:46:24.277Z,5.60
2019-04-18T01:48:53.435Z,6.08
2019-04-18T01:51:22.716Z,4.58
2019-04-18T01:53:52.245Z,5.33
2019-04-18T01:56:23.939Z,5.40
2019-04-18T01:58:52.325Z,6.00
2019-04-18T02:01:22.510Z,5.42
2019-04-18T02:03:52.075Z,5.53
2019-04-18T02:06:21.397Z,5.50
2019-04-18T02:08:51.942Z,6.17
2019-04-18T02:11:21.687Z,5.80
2019-04-18T02:13:52.455Z,6.30
2019-04-18T02:16:22.017Z,6.00
2019-04-18T02:18:54.564Z,5.47
2019-04-18T02:21:22.371Z,6.08
2019-04-18T02:23:52.056Z,5.40
2019-04-18T02:26:22.907Z,5.40
2019-04-18T02:28:52.275Z,6.87
2019-04-18T02:31:21.444Z,6.70
2019-04-18T02:33:50.602Z,5.45
2019-04-18T02:36:19.803Z,5.30
2019-04-18T02:38:49.673Z,5.20
2019-04-18T02:41:19.970Z,5.92
2019-04-18T02:43:51.038Z,5.67
2019-04-18T02:46:20.513Z,7.62
2019-04-18T02:48:49.697Z,5.15
2019-04-18T02:51:19.072Z,5.42
2019-04-18T02:53:48.222Z,5.33
2019-04-18T02:56:24.181Z,4.55
2019-04-18T02:59:06.952Z,5.85
2019-04-18T03:01:57.201Z,7.45
2019-04-18T03:04:44.007Z,7.72
2019-04-18T03:07:13.190Z,6.15
2019-04-18T03:09:43.973Z,6.37
2019-04-18T03:12:13.236Z,6.42
2019-04-18T03:14:43.505Z,7.72
2019-04-18T03:17:14.366Z,7.62
2019-04-18T03:19:46.238Z,6.12
2019-04-18T03:22:15.404Z,6.33
2019-04-18T03:24:46.259Z,7.62
2019-04-18T03:27:16.506Z,6.60
2019-04-18T03:29:45.857Z,6.92
2019-04-18T03:32:16.741Z,5.30
2019-04-18T03:34:45.890Z,5.72
2019-04-18T03:37:18.650Z,5.47
2019-04-18T03:39:50.752Z,5.20
2019-04-18T03:42:20.391Z,5.30
2019-04-18T03:45:00.784Z,5.40
2019-04-18T03:47:36.853Z,4.72
2019-04-18T03:50:07.481Z,5.87
2019-04-18T03:52:36.888Z,4.70
2019-04-18T03:55:06.584Z,5.20
2019-04-18T03:57:35.765Z,5.42
2019-04-18T04:00:08.003Z,6.08
2019-04-18T04:02:37.467Z,4.62
2019-04-18T04:05:08.115Z,5.90
2019-04-18T04:07:37.295Z,5.65
2019-04-18T04:10:12.435Z,4.50
2019-04-18T04:12:39.439Z,5.03
2019-04-18T04:15:14.136Z,4.92
2019-04-18T04:18:14.290Z,4.75
2019-04-18T04:20:44.824Z,5.55
2019-04-18T04:23:13.972Z,5.22
2019-04-18T04:25:43.501Z,5.67
2019-04-18T04:28:12.929Z,7.92
2019-04-18T04:30:45.029Z,7.90
2019-04-18T04:33:13.094Z,8.00
2019-04-18T04:35:42.341Z,8.45
2019-04-18T04:38:14.616Z,6.78
2019-04-18T04:40:42.764Z,6.42
2019-04-18T04:43:12.189Z,6.58
2019-04-18T04:45:41.408Z,6.62
2019-04-18T04:48:19.262Z,5.30
2019-04-18T04:51:32.593Z,6.12
2019-04-18T04:54:22.219Z,6.03
2019-04-18T04:57:20.906Z,5.12
2019-04-18T04:59:53.878Z,5.72
2019-04-18T05:02:23.036Z,5.08
2019-04-18T05:04:54.767Z,6.20
2019-04-18T05:07:23.143Z,5.55
2019-04-18T05:09:52.528Z,6.40
2019-04-18T05:12:23.947Z,5.95
2019-04-18T05:14:52.854Z,5.70
2019-04-18T05:17:22.022Z,6.45
2019-04-18T05:19:51.186Z,6.12
2019-04-18T05:22:20.474Z,6.80
2019-04-18T05:24:49.654Z,6.03
2019-04-18T05:27:18.890Z,5.97
2019-04-18T05:29:48.096Z,5.80
2019-04-18T05:32:17.307Z,6.97
2019-04-18T05:34:47.054Z,5.78
2019-04-18T05:37:17.935Z,5.95
2019-04-18T05:39:47.174Z,5.90
2019-04-18T05:42:17.263Z,5.95
2019-04-18T05:44:47.360Z,6.55
2019-04-18T05:47:38.697Z,6.25
2019-04-18T05:50:18.457Z,5.70
2019-04-18T05:52:59.755Z,6.00
2019-04-18T05:55:26.762Z,5.75
2019-04-18T05:58:15.216Z,5.70
2019-04-18T06:01:06.470Z,6.67
2019-04-18T06:04:07.898Z,5.95
2019-04-18T06:06:42.009Z,7.28
2019-04-18T06:09:12.414Z,6.92
2019-04-18T06:11:45.457Z,6.45
2019-04-18T06:14:21.398Z,7.30
2019-04-18T06:17:02.627Z,5.97
2019-04-18T06:19:37.332Z,7.30
2019-04-18T06:22:18.569Z,6.60
2019-04-18T06:24:51.342Z,6.75
2019-04-18T06:27:40.086Z,6.13
2019-04-18T06:30:31.648Z,6.95
2019-04-18T06:33:09.836Z,6.92
2019-04-18T06:35:39.042Z,7.40
2019-04-18T06:38:08.259Z,7.00
2019-04-18T06:40:37.847Z,5.70
2019-04-18T06:43:07.104Z,6.85
2019-04-18T06:45:37.800Z,6.83
2019-04-18T06:48:07.183Z,6.42
2019-04-18T06:50:36.345Z,6.70
2019-04-18T06:53:06.489Z,6.50
2019-04-18T06:55:36.390Z,7.95
2019-04-18T06:58:06.564Z,7.90
2019-04-18T07:00:35.991Z,7.60
2019-04-18T07:03:05.308Z,7.10
2019-04-18T07:05:35.605Z,6.60
2019-04-18T07:08:10.301Z,7.35
2019-04-18T07:10:56.241Z,8.40
2019-04-18T07:13:25.069Z,7.80
2019-04-18T07:15:54.287Z,7.25
2019-04-18T07:18:25.919Z,7.37
2019-04-18T07:21:04.229Z,6.83
2019-04-18T07:23:37.518Z,8.17
2019-04-18T07:26:08.044Z,7.92
2019-04-18T07:28:49.133Z,7.60
2019-04-18T07:31:08.826Z,6.92
2019-04-18T07:33:37.969Z,6.73
2019-04-18T07:36:07.392Z,7.77
2019-04-18T07:38:36.556Z,7.30
2019-04-18T07:41:05.718Z,7.60
2019-04-18T07:43:35.746Z,7.97
2019-04-18T07:46:08.878Z,7.83
2019-04-18T07:48:38.159Z,9.73
2019-04-18T07:51:07.339Z,7.33
2019-04-18T07:53:37.353Z,7.40
2019-04-18T07:56:08.490Z,8.57
2019-04-18T07:58:38.014Z,7.40
2019-04-18T08:01:08.531Z,8.43
2019-04-18T08:03:40.715Z,7.60
2019-04-18T08:06:11.173Z,7.90
2019-04-18T08:08:39.692Z,7.87
2019-04-18T08:11:08.996Z,8.40
2019-04-18T08:13:38.194Z,7.90
2019-04-18T08:16:07.384Z,9.00
2019-04-18T08:18:36.610Z,8.13
2019-04-18T08:21:07.802Z,8.10
2019-04-18T08:23:39.743Z,6.90
2019-04-18T08:26:08.805Z,7.90
2019-04-18T08:28:38.182Z,7.20
2019-04-18T08:31:07.531Z,7.50
2019-04-18T08:33:36.802Z,8.67
2019-04-18T08:36:09.941Z,8.33
2019-04-18T08:38:45.189Z,7.57
2019-04-18T08:41:27.284Z,7.43
2019-04-18T08:43:59.494Z,7.80
2019-04-18T08:46:30.799Z,7.53
2019-04-18T08:49:03.386Z,7.60
2019-04-18T08:51:42.163Z,7.80
2019-04-18T08:54:27.656Z,7.60
2019-04-18T08:57:02.240Z,7.37
2019-04-18T08:59:40.566Z,7.23
2019-04-18T09:02:12.738Z,7.63
2019-04-18T09:04:45.572Z,8.10
2019-04-18T09:07:14.559Z,7.57
2019-04-18T09:09:44.326Z,7.00
2019-04-18T09:12:14.277Z,7.93
2019-04-18T09:14:47.217Z,7.70
2019-04-18T09:17:17.794Z,7.30
2019-04-18T09:19:49.084Z,7.27
2019-04-18T09:22:18.685Z,6.87
2019-04-18T09:24:48.421Z,7.00
2019-04-18T09:27:20.485Z,8.70
2019-04-18T09:29:54.249Z,6.27
2019-04-18T09:32:19.648Z,6.93
2019-04-18T09:34:48.829Z,7.20
2019-04-18T09:37:18.161Z,7.50
2019-04-18T09:39:51.222Z,8.03
2019-04-18T09:42:18.675Z,6.33
2019-04-18T09:44:49.225Z,6.73
2019-04-18T09:47:21.284Z,7.40
2019-04-18T09:49:50.038Z,6.57
2019-04-18T09:52:19.226Z,6.10
2019-04-18T09:54:48.415Z,6.37
2019-04-18T09:57:17.725Z,7.00
2019-04-18T09:59:47.105Z,7.33
2019-04-18T10:02:16.242Z,6.40
2019-04-18T10:04:50.232Z,5.93
2019-04-18T10:07:16.316Z,6.70
2019-04-18T10:09:45.668Z,6.10
2019-04-18T10:12:14.918Z,6.30
2019-04-18T10:14:44.194Z,6.10
2019-04-18T10:17:16.420Z,7.50
2019-04-18T10:19:52.822Z,6.30
2019-04-18T10:22:27.940Z,6.63
2019-04-18T10:25:01.148Z,5.70
2019-04-18T10:27:33.460Z,6.80
2019-04-18T10:30:31.381Z,5.30
2019-04-18T10:32:58.982Z,5.90
2019-04-18T10:35:28.179Z,5.90
2019-04-18T10:37:57.743Z,6.10
2019-04-18T10:40:27.076Z,6.40
2019-04-18T10:42:56.278Z,5.90
2019-04-18T10:45:25.477Z,6.20
2019-04-18T10:47:54.682Z,6.20
2019-04-18T10:50:25.241Z,5.60
2019-04-18T10:52:55.768Z,6.00
2019-04-18T10:55:29.381Z,6.60
2019-04-18T10:57:56.728Z,4.60
2019-04-18T11:00:41.785Z,5.37
2019-04-18T11:02:58.294Z,6.00
2019-04-18T11:05:31.225Z,5.83
2019-04-18T11:07:58.551Z,5.10
2019-04-18T11:10:30.291Z,5.13
2019-04-18T11:12:58.680Z,5.30
2019-04-18T11:15:28.078Z,5.40
2019-04-18T11:17:57.273Z,5.73
2019-04-18T11:20:26.462Z,5.50
2019-04-18T11:22:55.627Z,5.43
2019-04-18T11:25:24.816Z,5.67
2019-04-18T11:27:53.980Z,5.70
2019-04-18T11:30:27.236Z,5.57
2019-04-18T11:32:54.451Z,6.30
2019-04-18T11:35:23.621Z,5.33
2019-04-18T11:37:55.346Z,5.53
2019-04-18T11:40:29.099Z,4.97
2019-04-18T11:42:57.256Z,5.57
2019-04-18T11:45:26.393Z,4.97
2019-04-18T11:47:55.592Z,5.00
2019-04-18T11:50:24.758Z,5.63
2019-04-18T11:52:54.011Z,4.87
2019-04-18T11:55:23.397Z,5.20
2019-04-18T11:57:52.557Z,4.97
2019-04-18T12:00:50.537Z,6.00
2019-04-18T12:03:39.880Z,4.20
2019-04-18T12:06:08.379Z,4.50
2019-04-18T12:08:37.596Z,4.60
2019-04-18T12:11:10.008Z,3.90
2019-04-18T12:13:37.668Z,5.57
2019-04-18T12:16:06.986Z,6.00
2019-04-18T12:18:36.185Z,4.30
2019-04-18T12:21:05.350Z,4.70
2019-04-18T12:23:34.518Z,5.17
2019-04-18T12:26:05.458Z,5.17
2019-04-18T12:28:34.734Z,4.77
2019-04-18T12:31:04.497Z,5.17
2019-04-18T12:33:35.243Z,5.40
2019-04-18T12:36:08.676Z,4.40
2019-04-18T12:38:39.389Z,4.60
2019-04-18T12:41:12.168Z,3.87
2019-04-18T12:43:39.800Z,4.80
2019-04-18T12:46:09.278Z,4.47
2019-04-18T12:48:38.476Z,4.20
2019-04-18T12:51:09.007Z,4.33
2019-04-18T12:53:38.162Z,4.50
2019-04-18T12:56:07.806Z,4.53
2019-04-18T12:58:37.097Z,4.47
2019-04-18T13:01:08.638Z,4.20
2019-04-18T13:03:44.296Z,4.73
2019-04-18T13:06:11.157Z,3.43
2019-04-18T13:08:46.918Z,5.53
2019-04-18T13:11:33.811Z,4.27
2019-04-18T13:14:21.038Z,4.10
2019-04-18T13:16:58.660Z,3.10
2019-04-18T13:19:27.812Z,4.43
2019-04-18T13:21:57.970Z,3.00
2019-04-18T13:24:27.663Z,4.20
2019-04-18T13:26:57.121Z,4.03
2019-04-18T13:29:26.298Z,4.60
2019-04-18T13:32:05.039Z,3.83
2019-04-18T13:34:26.434Z,3.57
2019-04-18T13:36:55.943Z,4.03
2019-04-18T13:39:25.103Z,4.43
2019-04-18T13:41:54.408Z,3.23
2019-04-18T13:44:23.561Z,3.00
2019-04-18T13:46:53.357Z,3.47
2019-04-18T13:49:22.627Z,3.73
2019-04-18T13:51:52.032Z,3.63
2019-04-18T13:54:21.341Z,3.53
2019-04-18T13:56:50.505Z,3.80
2019-04-18T13:59:19.758Z,3.47
2019-04-18T14:01:49.029Z,4.17
2019-04-18T14:04:19.487Z,3.60
2019-04-18T14:06:48.648Z,3.90
2019-04-18T14:09:18.001Z,2.87
2019-04-18T14:11:47.202Z,4.03
2019-04-18T14:14:16.345Z,3.37
2019-04-18T14:16:45.520Z,4.10
2019-04-18T14:19:14.720Z,3.87
2019-04-18T14:21:43.888Z,3.43
2019-04-18T14:24:13.112Z,3.63
2019-04-18T14:26:42.302Z,3.80
2019-04-18T14:29:11.464Z,3.67
2019-04-18T14:31:40.620Z,4.00
2019-04-18T14:34:10.473Z,4.13
2019-04-18T14:36:39.864Z,4.20
2019-04-18T14:39:12.217Z,3.83
2019-04-18T14:41:41.448Z,3.90
2019-04-18T14:44:10.658Z,4.00
2019-04-18T14:46:40.757Z,4.07
2019-04-18T14:49:10.106Z,4.20
2019-04-18T14:51:39.306Z,3.67
2019-04-18T14:54:08.516Z,3.27
2019-04-18T14:56:37.821Z,3.83
2019-04-18T14:59:07.410Z,3.50
2019-04-18T15:01:36.630Z,3.80
2019-04-18T15:04:08.258Z,4.00
2019-04-18T15:06:38.090Z,3.50
2019-04-18T15:09:14.575Z,3.73
2019-04-18T15:11:43.948Z,4.17
2019-04-18T15:14:13.229Z,3.97
2019-04-18T15:16:42.364Z,3.23
2019-04-18T15:19:11.919Z,3.60
2019-04-18T15:21:41.143Z,3.53
2019-04-18T15:24:10.339Z,3.33
2019-04-18T15:26:41.230Z,3.17
2019-04-18T15:29:13.224Z,3.03
2019-04-18T15:31:47.784Z,4.40
2019-04-18T15:34:15.821Z,2.93
2019-04-18T15:36:44.974Z,3.17
2019-04-18T15:39:14.109Z,3.10
2019-04-18T15:41:43.695Z,3.17
2019-04-18T15:44:12.845Z,3.23
2019-04-18T15:47:04.296Z,2.60
2019-04-18T15:49:34.577Z,2.80
2019-04-18T15:52:04.620Z,2.90
2019-04-18T15:54:33.794Z,2.43
2019-04-18T15:57:02.959Z,3.10
2019-04-18T15:59:32.317Z,2.60
2019-04-18T16:02:01.672Z,3.17
2019-04-18T16:04:31.993Z,2.90
2019-04-18T16:07:04.627Z,2.43
2019-04-18T16:09:34.845Z,2.57
2019-04-18T16:12:04.210Z,2.80
2019-04-18T16:15:02.672Z,2.60
2019-04-18T16:17:31.895Z,2.70
2019-04-18T16:20:01.070Z,3.60
2019-04-18T16:22:30.692Z,3.20
2019-04-18T16:24:59.931Z,2.23
2019-04-18T16:27:29.130Z,2.83
2019-04-18T16:29:58.310Z,2.83
2019-04-18T16:32:27.495Z,2.60
2019-04-18T16:34:56.649Z,2.40
2019-04-18T16:37:25.811Z,1.97
2019-04-18T16:39:54.995Z,2.50
2019-04-18T16:42:30.141Z,2.60
2019-04-18T16:44:55.356Z,2.20
2019-04-18T16:47:25.094Z,3.17
2019-04-18T16:49:54.527Z,2.57
2019-04-18T16:52:27.353Z,2.37
2019-04-18T16:54:54.733Z,2.47
2019-04-18T16:57:23.961Z,2.50
2019-04-18T16:59:53.285Z,2.10
2019-04-18T17:02:22.658Z,2.17
2019-04-18T17:04:51.814Z,2.80
2019-04-18T17:07:21.151Z,2.10
2019-04-18T17:09:50.373Z,1.83
2019-04-18T17:12:19.665Z,2.90
2019-04-18T17:14:48.853Z,2.30
2019-04-18T17:17:18.281Z,2.90
2019-04-18T17:19:47.500Z,2.00
2019-04-18T17:22:16.738Z,1.97
2019-04-18T17:24:45.898Z,1.97
2019-04-18T17:27:15.199Z,2.73
2019-04-18T17:29:45.631Z,1.80
2019-04-18T17:32:14.768Z,1.83
2019-04-18T17:34:50.614Z,2.50
2019-04-18T17:37:27.881Z,2.30
2019-04-18T17:40:01.091Z,2.40
2019-04-18T17:42:17.112Z,2.10
2019-04-18T17:44:51.725Z,2.00
2019-04-18T17:47:21.346Z,2.17
2019-04-18T17:49:56.249Z,2.03
2019-04-18T17:52:31.612Z,2.57
2019-04-18T17:55:14.045Z,2.23
2019-04-18T17:57:25.333Z,2.40
2019-04-18T17:59:56.540Z,2.43
2019-04-18T18:02:26.171Z,2.40
2019-04-18T18:05:06.579Z,2.63
2019-04-18T18:07:30.122Z,2.33
2019-04-18T18:09:59.231Z,2.13
2019-04-18T18:12:30.325Z,2.30
2019-04-18T18:15:01.618Z,2.10
2019-04-18T18:17:31.112Z,2.40
2019-04-18T18:20:06.968Z,1.83
2019-04-18T18:22:35.641Z,2.27
2019-04-18T18:25:02.804Z,2.07
2019-04-18T18:27:39.017Z,2.37
2019-04-18T18:30:04.917Z,2.73
2019-04-18T18:32:40.635Z,2.00
2019-04-18T18:37:42.303Z,2.30
2019-04-18T18:40:00.733Z,2.10
2019-04-18T18:42:34.049Z,1.70
2019-04-18T18:45:02.035Z,1.90
2019-04-18T18:47:32.001Z,2.07
2019-04-18T18:50:02.535Z,1.90
2019-04-18T18:52:33.133Z,2.20
2019-04-18T18:55:03.229Z,2.53
2019-04-18T18:57:40.684Z,1.90
2019-04-18T19:00:07.517Z,2.10
2019-04-18T19:02:38.738Z,1.90
2019-04-18T19:05:25.951Z,2.10
2019-04-18T19:07:58.246Z,2.43
2019-04-18T19:10:48.320Z,2.97
2019-04-18T19:15:51.448Z,2.20
2019-04-18T19:18:00.476Z,2.30
2019-04-18T19:20:29.865Z,2.03
2019-04-18T19:22:59.890Z,2.50
2019-04-18T19:25:35.265Z,2.40
2019-04-18T19:28:11.102Z,2.00
2019-04-18T19:30:38.270Z,2.53
2019-04-18T19:33:06.245Z,2.00
2019-04-18T19:35:48.477Z,2.57
2019-04-18T19:38:33.171Z,2.13
2019-04-18T19:41:01.825Z,2.33
2019-04-18T19:43:11.335Z,2.13
2019-04-18T19:45:43.626Z,2.60
2019-04-18T19:48:09.676Z,2.43
2019-04-18T19:53:37.324Z,2.17
2019-04-18T19:56:12.718Z,2.20
2019-04-18T19:58:55.989Z,2.30
2019-04-18T20:01:26.020Z,2.30
2019-04-18T20:03:56.283Z,2.40
2019-04-18T20:06:36.838Z,2.00
2019-04-18T20:09:11.858Z,2.30
2019-04-18T20:11:45.174Z,2.40
2019-04-18T20:14:09.315Z,2.10
2019-04-18T20:16:31.648Z,1.80
2019-04-18T20:19:10.390Z,2.03
2019-04-18T20:21:33.027Z,2.17
2019-04-18T20:24:02.584Z,2.33
2019-04-18T20:26:38.798Z,1.80
2019-04-18T20:29:03.415Z,2.43
2019-04-18T20:31:42.345Z,1.80
2019-04-18T20:34:07.756Z,2.40
2019-04-18T20:36:46.901Z,2.33
2019-04-18T20:39:34.712Z,2.73
2019-04-18T20:44:25.190Z,2.10
2019-04-18T20:46:55.376Z,1.90
2019-04-18T20:49:33.185Z,2.53
2019-04-18T20:51:51.566Z,2.40
2019-04-18T20:54:35.886Z,2.20
2019-04-18T20:56:49.319Z,2.30
2019-04-18T20:59:20.987Z,2.87
2019-04-18T21:01:50.248Z,2.80
2019-04-18T21:07:46.338Z,2.40
2019-04-18T21:10:15.881Z,3.50
2019-04-18T21:12:42.353Z,2.03
2019-04-18T21:15:11.758Z,3.20
2019-04-18T21:17:42.054Z,2.33
2019-04-18T21:20:11.492Z,2.40
2019-04-18T21:22:40.910Z,2.63
2019-04-18T21:25:10.449Z,4.27
2019-04-18T21:27:44.842Z,3.07
2019-04-18T21:30:11.978Z,1.93
2019-04-18T21:32:44.248Z,2.50
2019-04-18T21:35:13.029Z,2.20
2019-04-18T21:37:55.857Z,3.00
2019-04-18T21:40:17.305Z,1.83
2019-04-18T21:42:44.965Z,2.50
2019-04-18T21:45:18.010Z,2.90
2019-04-18T21:47:45.541Z,2.40
2019-04-18T21:50:21.546Z,2.43
2019-04-18T21:52:46.645Z,2.37
2019-04-18T21:55:20.317Z,2.60
2019-04-18T21:57:47.169Z,2.00
2019-04-18T22:03:05.685Z,2.67
2019-04-18T22:05:32.518Z,2.50
2019-04-18T22:08:05.974Z,2.20
2019-04-18T22:10:35.164Z,2.40
2019-04-18T22:13:04.917Z,2.50
2019-04-18T22:15:40.557Z,2.60
2019-04-18T22:18:05.636Z,4.80
2019-04-18T22:20:35.113Z,2.20
2019-04-18T22:23:05.834Z,2.20
2019-04-18T22:25:41.829Z,3.23
2019-04-18T22:28:07.070Z,2.50
2019-04-18T22:30:41.314Z,2.63
2019-04-18T22:33:20.858Z,2.50
2019-04-18T22:35:53.058Z,2.25
2019-04-18T22:38:30.762Z,2.52
2019-04-18T22:40:56.692Z,1.90
2019-04-18T22:43:30.287Z,2.03
2019-04-18T22:45:56.687Z,2.37
2019-04-18T22:48:29.714Z,3.07
2019-04-18T22:50:57.225Z,3.33
2019-04-18T22:53:27.067Z,3.00
2019-04-18T22:56:02.448Z,2.00
2019-04-18T22:58:29.003Z,2.57
2019-04-18T23:01:01.828Z,2.75
2019-04-18T23:03:30.929Z,3.50
2019-04-18T23:06:00.763Z,2.70
2019-04-18T23:08:34.818Z,1.93
2019-04-18T23:11:08.293Z,2.37
2019-04-18T23:13:35.399Z,2.97
2019-04-18T23:16:12.222Z,3.10
2019-04-18T23:18:37.426Z,2.30
2019-04-18T23:21:11.988Z,3.40
2019-04-18T23:23:38.685Z,6.37
2019-04-18T23:26:11.109Z,3.10
2019-04-18T23:28:39.168Z,3.10
2019-04-18T23:31:12.696Z,2.52
2019-04-18T23:33:39.606Z,3.43
2019-04-18T23:36:09.756Z,3.80
2019-04-18T23:38:42.424Z,2.77
2019-04-18T23:41:15.093Z,3.37
2019-04-18T23:43:41.943Z,3.27
2019-04-18T23:46:17.862Z,3.40
2019-04-18T23:48:43.419Z,3.77
2019-04-18T23:51:14.796Z,4.90
2019-04-18T23:53:48.598Z,4.10
2019-04-18T23:56:16.687Z,2.95
2019-04-18T23:58:51.681Z,3.05
